Wetterstation Vordersexau
Wetterdaten: Woche 11.12.17 - 17.12.17 (KW50)
Datum Zeit Temp. A. Feuchte A. Luftdruck Regen Wind Richtung Taupunkt Windchill Windben
11.12.2017 00:00 9,1 C 78 % 986,3 hPa 0,0 l/m 24,0 km/h S-SO 5,5 C 0,9 C 13,3 km/h
11.12.2017 01:00 8,6 C 81 % 985,3 hPa 0,0 l/m 18,8 km/h SW 5,5 C 1,9 C 10,4 km/h
11.12.2017 02:00 8,9 C 82 % 984,9 hPa 0,0 l/m 4,5 km/h SO 6,0 C 8,9 C 2,5 km/h
11.12.2017 03:00 7,9 C 84 % 983,7 hPa 0,0 l/m 0,0 km/h O-NO 5,4 C 7,9 C 0,0 km/h
11.12.2017 04:00 7,3 C 85 % 982,1 hPa 0,5 l/m 0,0 km/h O-SO 4,9 C 7,3 C 0,0 km/h
11.12.2017 05:00 7,4 C 84 % 981,0 hPa 0,0 l/m 3,2 km/h O-SO 4,9 C 7,4 C 1,8 km/h
11.12.2017 06:00 7,3 C 82 % 980,1 hPa 1,0 l/m 0,0 km/h O-SO 4,4 C 7,3 C 0,0 km/h
11.12.2017 07:00 8,1 C 83 % 980,0 hPa 1,0 l/m 3,9 km/h SO 5,4 C 8,1 C 2,2 km/h
11.12.2017 08:00 7,9 C 84 % 979,7 hPa 1,6 l/m 20,7 km/h O-SO 5,4 C 0,3 C 11,5 km/h
11.12.2017 09:00 9,3 C 84 % 978,3 hPa 0,5 l/m 24,6 km/h S-SO 6,7 C 1,0 C 13,7 km/h
11.12.2017 10:00 10,9 C 81 % 978,4 hPa 0,0 l/m 0,0 km/h W-NW 7,8 C 10,9 C 0,0 km/h
11.12.2017 11:00 8,1 C 85 % 978,9 hPa 1,0 l/m 0,0 km/h NW 5,7 C 8,1 C 0,0 km/h
11.12.2017 12:00 7,8 C 84 % 979,3 hPa 2,1 l/m 0,0 km/h W-SW 5,3 C 7,8 C 0,0 km/h
11.12.2017 13:00 8,1 C 81 % 980,6 hPa 2,1 l/m 11,0 km/h S 5,0 C 4,9 C 6,1 km/h
11.12.2017 14:00 7,2 C 83 % 982,3 hPa 1,0 l/m 20,1 km/h SO 4,5 C -0,4 C 11,2 km/h
11.12.2017 15:00 6,4 C 83 % 983,2 hPa 1,0 l/m 20,1 km/h S-SW 3,7 C -1,4 C 11,2 km/h
11.12.2017 16:00 5,9 C 84 % 984,0 hPa 0,5 l/m 7,1 km/h S-SO 3,4 C 5,3 C 4,0 km/h
11.12.2017 17:00 6,0 C 85 % 984,2 hPa 0,5 l/m 22,0 km/h SW 3,7 C -2,6 C 12,2 km/h
11.12.2017 18:00 6,3 C 85 % 985,1 hPa 0,0 l/m 34,3 km/h S-SW 4,0 C -5,5 C 19,1 km/h
11.12.2017 19:00 7,4 C 81 % 985,4 hPa 0,5 l/m 18,8 km/h SW 4,4 C 0,4 C 10,4 km/h
11.12.2017 20:00 7,8 C 77 % 985,9 hPa 0,0 l/m 18,8 km/h S-SW 4,0 C 0,9 C 10,4 km/h
11.12.2017 21:00 8,4 C 73 % 986,1 hPa 0,0 l/m 19,4 km/h SW 3,8 C 1,4 C 10,8 km/h
11.12.2017 22:00 8,7 C 71 % 987,4 hPa 0,0 l/m 43,4 km/h W-SW 3,7 C -3,5 C 24,1 km/h
11.12.2017 23:00 8,5 C 71 % 988,6 hPa 0,0 l/m 22,7 km/h W 3,5 C 0,5 C 12,6 km/h
12.12.2017 00:00 8,2 C 73 % 990,2 hPa 0,0 l/m 45,4 km/h W-SW 3,7 C -4,5 C 25,2 km/h
12.12.2017 01:00 6,9 C 70 % 993,0 hPa 0,0 l/m 33,7 km/h W-SW 1,8 C -4,5 C 18,7 km/h
12.12.2017 02:00 5,8 C 71 % 996,1 hPa 0,0 l/m 22,7 km/h SW 1,0 C -3,1 C 12,6 km/h
12.12.2017 03:00 4,6 C 74 % 998,3 hPa 0,0 l/m 20,1 km/h W 0,4 C -3,7 C 11,2 km/h
12.12.2017 04:00 3,9 C 76 % 999,9 hPa 0,0 l/m 18,8 km/h W-SW 0,1 C -4,1 C 10,4 km/h
12.12.2017 05:00 3,5 C 77 % 1001,9 hPa 0,0 l/m 33,0 km/h W-SW -0,1 C -9,3 C 18,4 km/h
12.12.2017 06:00 3,3 C 79 % 1003,8 hPa 0,0 l/m 25,3 km/h W-SW 0,0 C -7,3 C 14,0 km/h
12.12.2017 07:00 3,3 C 80 % 1004,9 hPa 0,0 l/m 24,0 km/h SW 0,2 C -6,9 C 13,3 km/h
12.12.2017 08:00 3,4 C 80 % 1006,2 hPa 0,0 l/m 9,7 km/h S-SW 0,3 C 0,5 C 5,4 km/h
12.12.2017 09:00 3,9 C 78 % 1007,4 hPa 0,0 l/m 20,7 km/h W-SW 0,4 C -4,9 C 11,5 km/h
12.12.2017 10:00 3,9 C 77 % 1008,8 hPa 0,0 l/m 18,8 km/h SW 0,2 C -4,1 C 10,4 km/h
12.12.2017 11:00 4,4 C 77 % 1009,2 hPa 0,0 l/m 21,4 km/h W-SW 0,7 C -4,5 C 11,9 km/h
12.12.2017 12:00 4,9 C 77 % 1009,9 hPa 0,0 l/m 21,4 km/h W 1,2 C -3,8 C 11,9 km/h
12.12.2017 13:00 4,9 C 77 % 1010,2 hPa 0,0 l/m 16,2 km/h SW 1,2 C -1,6 C 9,0 km/h
12.12.2017 14:00 6,2 C 73 % 1011,1 hPa 0,0 l/m 24,0 km/h W-SW 1,7 C -3,0 C 13,3 km/h
12.12.2017 15:00 8,1 C 64 % 1011,7 hPa 0,0 l/m 11,7 km/h S 1,7 C 4,5 C 6,5 km/h
12.12.2017 16:00 4,1 C 72 % 1012,5 hPa 0,0 l/m 11,0 km/h S-SW -0,5 C 0,4 C 6,1 km/h
12.12.2017 17:00 3,7 C 75 % 1013,4 hPa 0,0 l/m 13,6 km/h SW -0,3 C -1,7 C 7,6 km/h
12.12.2017 18:00 3,8 C 75 % 1014,1 hPa 0,0 l/m 13,0 km/h S -0,2 C -1,2 C 7,2 km/h
12.12.2017 19:00 2,3 C 76 % 1014,7 hPa 0,0 l/m 0,0 km/h SO -1,5 C 2,3 C 0,0 km/h
12.12.2017 20:00 1,4 C 79 % 1015,5 hPa 0,0 l/m 0,0 km/h S-SO -1,8 C 1,4 C 0,0 km/h
12.12.2017 21:00 2,3 C 79 % 1015,6 hPa 0,0 l/m 7,1 km/h SO -1,0 C 1,6 C 4,0 km/h
12.12.2017 22:00 3,1 C 77 % 1015,7 hPa 0,0 l/m 9,1 km/h S -0,5 C 0,7 C 5,0 km/h
12.12.2017 23:00 3,3 C 75 % 1015,8 hPa 0,0 l/m 3,2 km/h S -0,7 C 3,3 C 1,8 km/h
13.12.2017 00:00 2,4 C 76 % 1016,0 hPa 0,0 l/m 25,3 km/h S -1,4 C -8,6 C 14,0 km/h
13.12.2017 01:00 2,7 C 75 % 1016,1 hPa 0,0 l/m 6,5 km/h SW -1,3 C 2,6 C 3,6 km/h
13.12.2017 02:00 1,9 C 75 % 1016,3 hPa 0,0 l/m 0,0 km/h W-NW -2,1 C 1,9 C 0,0 km/h
13.12.2017 03:00 0,1 C 80 % 1016,1 hPa 0,0 l/m 0,0 km/h N-NW -2,9 C 0,1 C 0,0 km/h
13.12.2017 04:00 -0,8 C 83 % 1015,5 hPa 0,0 l/m 0,0 km/h N -3,3 C -0,8 C 0,0 km/h
13.12.2017 05:00 -1,2 C 85 % 1014,9 hPa 0,0 l/m 0,0 km/h N-NO -3,4 C -1,2 C 0,0 km/h
13.12.2017 06:00 -1,4 C 85 % 1014,8 hPa 0,0 l/m 0,0 km/h SO -3,6 C -1,4 C 0,0 km/h
13.12.2017 07:00 0,9 C 85 % 1014,3 hPa 0,0 l/m 0,0 km/h N-NO -1,3 C 0,9 C 0,0 km/h
13.12.2017 08:00 0,4 C 82 % 1014,0 hPa 0,0 l/m 0,0 km/h S -2,3 C 0,4 C 0,0 km/h
13.12.2017 09:00 5,3 C 73 % 1013,0 hPa 0,0 l/m 18,8 km/h SW 0,9 C -2,3 C 10,4 km/h
13.12.2017 10:00 7,9 C 59 % 1012,0 hPa 0,0 l/m 13,0 km/h W-SW 0,4 C 3,6 C 7,2 km/h
13.12.2017 11:00 9,1 C 53 % 1010,2 hPa 0,0 l/m 21,4 km/h S 0,0 C 1,7 C 11,9 km/h
13.12.2017 12:00 8,1 C 53 % 1008,4 hPa 0,0 l/m 35,0 km/h SW -0,9 C -3,1 C 19,4 km/h
13.12.2017 13:00 7,6 C 53 % 1007,1 hPa 0,0 l/m 9,1 km/h W-SW -1,4 C 5,5 C 5,0 km/h
13.12.2017 14:00 6,8 C 53 % 1006,3 hPa 0,0 l/m 30,5 km/h W-SW -2,1 C -4,0 C 16,9 km/h
13.12.2017 15:00 4,2 C 76 % 1006,2 hPa 0,0 l/m 14,9 km/h SW 0,4 C -1,8 C 8,3 km/h
13.12.2017 16:00 4,1 C 78 % 1005,4 hPa 0,0 l/m 0,0 km/h W-SW 0,6 C 4,1 C 0,0 km/h
13.12.2017 17:00 6,1 C 78 % 1004,5 hPa 0,0 l/m 44,1 km/h S-SW 2,6 C -7,5 C 24,5 km/h
13.12.2017 18:00 6,7 C 77 % 1003,7 hPa 0,0 l/m 25,9 km/h S-SO 3,0 C -2,9 C 14,4 km/h
13.12.2017 19:00 6,9 C 76 % 1001,8 hPa 0,0 l/m 25,3 km/h S-SW 3,0 C -2,5 C 14,0 km/h
13.12.2017 20:00 6,9 C 77 % 1000,2 hPa 0,0 l/m 26,6 km/h S 3,2 C -2,8 C 14,8 km/h
13.12.2017 21:00 6,6 C 80 % 997,7 hPa 0,0 l/m 22,0 km/h W 3,4 C -1,8 C 12,2 km/h
13.12.2017 22:00 6,5 C 83 % 996,4 hPa 0,5 l/m 16,8 km/h W-SW 3,8 C 0,1 C 9,4 km/h
13.12.2017 23:00 7,9 C 82 % 996,2 hPa 0,0 l/m 38,2 km/h W-SW 5,0 C -3,9 C 21,2 km/h
14.12.2017 00:00 8,5 C 84 % 995,7 hPa 0,0 l/m 29,8 km/h W-SW 6,0 C -1,4 C 16,6 km/h
14.12.2017 01:00 9,1 C 83 % 996,4 hPa 0,0 l/m 39,5 km/h W-SW 6,4 C -2,4 C 22,0 km/h
14.12.2017 02:00 8,2 C 84 % 997,0 hPa 0,0 l/m 47,3 km/h W-SW 5,7 C -4,8 C 26,3 km/h
14.12.2017 03:00 7,8 C 85 % 996,9 hPa 0,0 l/m 21,4 km/h W-SW 5,4 C -0,0 C 11,9 km/h
14.12.2017 04:00 7,6 C 85 % 996,9 hPa 1,0 l/m 33,0 km/h W-NW 5,2 C -3,4 C 18,4 km/h
14.12.2017 05:00 4,6 C 85 % 1000,0 hPa 2,1 l/m 24,6 km/h SW 2,3 C -5,4 C 13,7 km/h
14.12.2017 06:00 4,5 C 84 % 1001,3 hPa 0,0 l/m 18,1 km/h W-SW 2,0 C -3,0 C 10,1 km/h
14.12.2017 07:00 4,5 C 82 % 1002,4 hPa 0,0 l/m 24,0 km/h S 1,7 C -5,3 C 13,3 km/h
14.12.2017 08:00 4,3 C 82 % 1003,0 hPa 0,0 l/m 17,5 km/h SW 1,5 C -3,0 C 9,7 km/h
14.12.2017 09:00 6,0 C 78 % 1002,7 hPa 0,0 l/m 19,4 km/h S 2,5 C -1,6 C 10,8 km/h
14.12.2017 10:00 7,3 C 72 % 1002,7 hPa 0,0 l/m 20,1 km/h W-SW 2,6 C -0,2 C 11,2 km/h
14.12.2017 11:00 7,5 C 72 % 1002,1 hPa 0,0 l/m 14,9 km/h S-SW 2,8 C 2,2 C 8,3 km/h
14.12.2017 12:00 7,6 C 73 % 1001,5 hPa 0,0 l/m 36,9 km/h W 3,1 C -4,1 C 20,5 km/h
14.12.2017 13:00 7,3 C 73 % 1000,5 hPa 0,0 l/m 25,3 km/h SW 2,8 C -1,9 C 14,0 km/h
14.12.2017 14:00 7,1 C 73 % 999,3 hPa 0,0 l/m 42,1 km/h W-SW 2,6 C -5,7 C 23,4 km/h
14.12.2017 15:00 6,7 C 72 % 998,4 hPa 0,0 l/m 22,0 km/h W 2,0 C -1,7 C 12,2 km/h
14.12.2017 16:00 6,5 C 73 % 998,0 hPa 0,0 l/m 3,9 km/h W-SW 2,0 C 6,5 C 2,2 km/h
14.12.2017 17:00 5,5 C 79 % 996,5 hPa 0,0 l/m 29,8 km/h SW 2,2 C -5,6 C 16,6 km/h
14.12.2017 18:00 5,2 C 81 % 995,6 hPa 0,0 l/m 0,6 km/h S-SW 2,2 C 5,2 C 0,4 km/h
14.12.2017 19:00 5,2 C 84 % 994,8 hPa 0,0 l/m 18,8 km/h S-SW 2,7 C -2,4 C 10,4 km/h
14.12.2017 20:00 5,9 C 83 % 993,9 hPa 0,0 l/m 19,4 km/h SW 3,2 C -1,8 C 10,8 km/h
14.12.2017 21:00 5,6 C 82 % 993,5 hPa 0,0 l/m 20,7 km/h S-SW 2,8 C -2,7 C 11,5 km/h
14.12.2017 22:00 5,8 C 82 % 993,2 hPa 0,0 l/m 16,8 km/h SW 3,0 C -0,8 C 9,4 km/h
14.12.2017 23:00 5,6 C 81 % 992,8 hPa 0,0 l/m 30,5 km/h S-SW 2,6 C -5,7 C 16,9 km/h
15.12.2017 00:00 4,8 C 82 % 992,6 hPa 0,0 l/m 21,4 km/h S 2,0 C -4,0 C 11,9 km/h
15.12.2017 01:00 4,4 C 83 % 993,7 hPa 0,0 l/m 30,5 km/h SW 1,8 C -7,3 C 16,9 km/h
15.12.2017 02:00 4,5 C 83 % 994,3 hPa 0,0 l/m 25,3 km/h W-SW 1,9 C -5,7 C 14,0 km/h
15.12.2017 03:00 4,3 C 82 % 994,8 hPa 0,0 l/m 0,0 km/h S-SW 1,5 C 4,3 C 0,0 km/h
15.12.2017 04:00 4,4 C 78 % 995,6 hPa 0,0 l/m 38,9 km/h W-SW 0,9 C -9,2 C 21,6 km/h
15.12.2017 05:00 4,6 C 78 % 995,9 hPa 0,0 l/m 27,9 km/h S-SW 1,1 C -6,4 C 15,5 km/h
15.12.2017 06:00 4,5 C 77 % 996,7 hPa 0,0 l/m 21,4 km/h W-SW 0,8 C -4,4 C 11,9 km/h
15.12.2017 07:00 4,4 C 78 % 996,9 hPa 0,0 l/m 22,7 km/h S 0,9 C -5,0 C 12,6 km/h
15.12.2017 08:00 5,1 C 73 % 996,6 hPa 0,0 l/m 18,1 km/h S-SW 0,7 C -2,3 C 10,1 km/h
15.12.2017 09:00 5,9 C 69 % 997,0 hPa 0,0 l/m 26,6 km/h W-SW 0,7 C -4,2 C 14,8 km/h
15.12.2017 10:00 5,9 C 71 % 997,7 hPa 0,0 l/m 20,1 km/h W-SW 1,1 C -2,0 C 11,2 km/h
15.12.2017 11:00 8,1 C 70 % 998,0 hPa 0,0 l/m 25,3 km/h S-SW 3,0 C -0,8 C 14,0 km/h
15.12.2017 12:00 7,0 C 69 % 997,5 hPa 0,0 l/m 17,5 km/h W-SW 1,7 C 0,4 C 9,7 km/h
15.12.2017 13:00 8,6 C 67 % 997,5 hPa 0,0 l/m 44,1 km/h SW 2,8 C -3,8 C 24,5 km/h
15.12.2017 14:00 9,1 C 60 % 997,4 hPa 0,0 l/m 36,9 km/h W-SW 1,8 C -1,9 C 20,5 km/h
15.12.2017 15:00 6,1 C 69 % 997,5 hPa 0,0 l/m 22,0 km/h W-SW 0,8 C -2,5 C 12,2 km/h
15.12.2017 16:00 5,5 C 73 % 997,2 hPa 0,0 l/m 19,4 km/h SW 1,1 C -2,3 C 10,8 km/h
15.12.2017 17:00 5,2 C 73 % 997,1 hPa 0,0 l/m 21,4 km/h S 0,8 C -3,4 C 11,9 km/h
15.12.2017 18:00 4,9 C 75 % 997,4 hPa 0,0 l/m 0,0 km/h SW 0,8 C 4,9 C 0,0 km/h
15.12.2017 19:00 5,4 C 74 % 997,8 hPa 0,0 l/m 0,0 km/h W-SW 1,1 C 5,4 C 0,0 km/h
15.12.2017 20:00 5,2 C 75 % 998,2 hPa 0,0 l/m 0,0 km/h S-SW 1,1 C 5,2 C 0,0 km/h
15.12.2017 21:00 5,3 C 74 % 998,4 hPa 0,0 l/m 11,7 km/h S-SO 1,0 C 1,3 C 6,5 km/h
15.12.2017 22:00 5,0 C 75 % 998,6 hPa 0,0 l/m 0,0 km/h S 0,9 C 5,0 C 0,0 km/h
15.12.2017 23:00 4,8 C 75 % 998,9 hPa 0,0 l/m 0,0 km/h S 0,8 C 4,8 C 0,0 km/h
16.12.2017 00:00 4,3 C 76 % 998,9 hPa 0,0 l/m 0,0 km/h S 0,5 C 4,3 C 0,0 km/h
16.12.2017 01:00 4,4 C 78 % 999,5 hPa 0,0 l/m 16,2 km/h W 0,9 C -2,3 C 9,0 km/h
16.12.2017 02:00 3,7 C 81 % 1000,2 hPa 0,0 l/m 20,1 km/h SW 0,7 C -4,9 C 11,2 km/h
16.12.2017 03:00 3,8 C 82 % 1001,0 hPa 0,0 l/m 20,7 km/h W-SW 1,0 C -5,0 C 11,5 km/h
16.12.2017 04:00 3,6 C 83 % 1001,9 hPa 0,0 l/m 3,9 km/h W-SW 1,0 C 3,6 C 2,2 km/h
16.12.2017 05:00 2,9 C 85 % 1002,9 hPa 0,0 l/m 0,0 km/h N-NW 0,6 C 2,9 C 0,0 km/h
16.12.2017 06:00 2,1 C 85 % 1004,0 hPa 1,6 l/m 0,0 km/h N -0,2 C 2,1 C 0,0 km/h
16.12.2017 07:00 0,7 C 85 % 1004,9 hPa 1,6 l/m 0,0 km/h N -1,5 C 0,7 C 0,0 km/h
16.12.2017 08:00 0,8 C 85 % 1006,3 hPa 1,0 l/m 0,0 km/h NO -1,4 C 0,8 C 0,0 km/h
16.12.2017 09:00 0,9 C 85 % 1007,4 hPa 1,6 l/m 0,0 km/h O-SO -1,3 C 0,9 C 0,0 km/h
16.12.2017 10:00 1,8 C 83 % 1008,5 hPa 0,5 l/m 0,0 km/h O-NO -0,8 C 1,8 C 0,0 km/h
16.12.2017 11:00 2,2 C 83 % 1009,6 hPa 0,5 l/m 0,0 km/h NW -0,4 C 2,2 C 0,0 km/h
16.12.2017 12:00 2,6 C 82 % 1010,5 hPa 1,0 l/m 0,0 km/h O-SO -0,2 C 2,6 C 0,0 km/h
16.12.2017 13:00 2,9 C 83 % 1011,0 hPa 0,0 l/m 3,2 km/h S 0,3 C 2,9 C 1,8 km/h
16.12.2017 14:00 3,8 C 85 % 1011,4 hPa 0,0 l/m 0,0 km/h S-SO 1,5 C 3,8 C 0,0 km/h
16.12.2017 15:00 3,0 C 85 % 1012,4 hPa 0,0 l/m 0,0 km/h S-SO 0,7 C 3,0 C 0,0 km/h
16.12.2017 16:00 2,3 C 85 % 1013,2 hPa 0,0 l/m 0,0 km/h S-SO 0,0 C 2,3 C 0,0 km/h
16.12.2017 17:00 1,8 C 85 % 1014,1 hPa 0,0 l/m 0,0 km/h S-SO -0,4 C 1,8 C 0,0 km/h
16.12.2017 18:00 1,0 C 84 % 1014,8 hPa 0,0 l/m 0,0 km/h S-SO -1,4 C 1,0 C 0,0 km/h
16.12.2017 19:00 1,0 C 84 % 1015,3 hPa 0,0 l/m 0,0 km/h S-SO -1,4 C 1,0 C 0,0 km/h
16.12.2017 20:00 1,3 C 83 % 1016,0 hPa 0,0 l/m 0,0 km/h S -1,3 C 1,3 C 0,0 km/h
16.12.2017 21:00 1,6 C 83 % 1016,3 hPa 0,5 l/m 0,0 km/h W-SW -1,0 C 1,6 C 0,0 km/h
16.12.2017 22:00 1,5 C 81 % 1016,8 hPa 0,0 l/m 0,0 km/h SW -1,4 C 1,5 C 0,0 km/h
16.12.2017 23:00 1,4 C 81 % 1017,3 hPa 0,0 l/m 0,0 km/h S-SO -1,5 C 1,4 C 0,0 km/h
17.12.2017 00:00 1,6 C 81 % 1017,5 hPa 0,0 l/m 0,0 km/h S-SO -1,3 C 1,6 C 0,0 km/h
17.12.2017 01:00 1,8 C 81 % 1017,8 hPa 0,0 l/m 0,0 km/h W-SW -1,1 C 1,8 C 0,0 km/h
17.12.2017 02:00 1,8 C 81 % 1018,6 hPa 0,0 l/m 0,0 km/h W-SW -1,1 C 1,8 C 0,0 km/h
17.12.2017 03:00 1,5 C 81 % 1018,9 hPa 0,0 l/m 0,0 km/h W-SW -1,4 C 1,5 C 0,0 km/h
17.12.2017 04:00 1,2 C 81 % 1019,3 hPa 0,0 l/m 0,0 km/h W-SW -1,7 C 1,2 C 0,0 km/h
17.12.2017 05:00 1,0 C 81 % 1019,5 hPa 0,0 l/m 0,0 km/h W-SW -1,9 C 1,0 C 0,0 km/h
17.12.2017 06:00 1,0 C 81 % 1020,1 hPa 0,0 l/m 0,0 km/h W-SW -1,9 C 1,0 C 0,0 km/h
17.12.2017 07:00 0,4 C 81 % 1020,6 hPa 0,0 l/m 0,0 km/h W-SW -2,5 C 0,4 C 0,0 km/h
17.12.2017 08:00 0,7 C 81 % 1021,3 hPa 0,0 l/m 0,0 km/h W-NW -2,2 C 0,7 C 0,0 km/h
17.12.2017 09:00 3,1 C 83 % 1022,1 hPa 0,0 l/m 0,0 km/h W-NW 0,5 C 3,1 C 0,0 km/h
17.12.2017 10:00 2,2 C 85 % 1022,7 hPa 0,0 l/m 0,0 km/h W-NW -0,1 C 2,2 C 0,0 km/h
17.12.2017 11:00 3,6 C 86 % 1022,6 hPa 0,0 l/m 0,0 km/h W-SW 1,5 C 3,6 C 0,0 km/h
17.12.2017 12:00 4,5 C 79 % 1022,3 hPa 0,0 l/m 0,0 km/h W 1,2 C 4,5 C 0,0 km/h
17.12.2017 13:00 5,1 C 75 % 1022,2 hPa 0,0 l/m 0,0 km/h S 1,0 C 5,1 C 0,0 km/h
17.12.2017 14:00 5,1 C 72 % 1022,4 hPa 0,0 l/m 0,0 km/h W-SW 0,5 C 5,1 C 0,0 km/h
17.12.2017 15:00 6,1 C 74 % 1023,1 hPa 0,5 l/m 0,0 km/h SW 1,8 C 6,1 C 0,0 km/h
17.12.2017 16:00 2,7 C 79 % 1023,8 hPa 0,0 l/m 0,0 km/h SO -0,6 C 2,7 C 0,0 km/h
17.12.2017 17:00 1,6 C 83 % 1024,5 hPa 0,0 l/m 0,0 km/h SO -1,0 C 1,6 C 0,0 km/h
17.12.2017 18:00 1,3 C 85 % 1024,7 hPa 0,0 l/m 0,0 km/h SO -0,9 C 1,3 C 0,0 km/h
17.12.2017 19:00 0,9 C 85 % 1024,7 hPa 0,0 l/m 0,0 km/h SO -1,3 C 0,9 C 0,0 km/h
17.12.2017 20:00 0,6 C 86 % 1024,9 hPa 0,0 l/m 0,0 km/h SO -1,5 C 0,6 C 0,0 km/h
17.12.2017 21:00 0,1 C 86 % 1024,9 hPa 0,0 l/m 0,0 km/h SO -2,0 C 0,1 C 0,0 km/h
17.12.2017 22:00 -0,1 C 85 % 1024,8 hPa 0,0 l/m 0,0 km/h SO -2,3 C -0,1 C 0,0 km/h
17.12.2017 23:00 -0,2 C 85 % 1024,4 hPa 0,0 l/m 0,0 km/h S -2,4 C -0,2 C 0,0 km/h
Min-Datum _ 13.12.17 13.12.17 11.12.17 - 11.12.17 - 13.12.17 12.12.17 11.12.17
_ Min-Zeit 06:53 11:53 09:53 - 03:53 - 06:53 05:53 03:53
Minimum _ -1,4 C 53 % 978,3 hPa - 0,0 km/h - -3,6 C -9,3 C 0,0 km/h
Max-Datum _ 11.12.17 17.12.17 17.12.17 11.12.17 14.12.17 - 11.12.17 11.12.17 14.12.17
_ Max-Zeit 10:53 11:53 20:53 12:53 02:53 - 10:53 10:53 02:53
Maximum _ 10,9 C 86 % 1024,9 hPa 2,1 l/m 47,3 km/h
W-SW
- 7,8 C 10,9 C 26,3 km/h
W-SW
Durchschnitt _ 4,7 C 78 % 1003,6 hPa #25,9 l/m 13,3 km/h W-SW 1,2 C -0,0 C 7,4 km/h
www.sexauwetter.de